sensor_id;sensor_type;location;lat;lon;timestamp;pressure;altitude;pressure_sealevel;temperature;humidity
69982;BME280;57319;56.274;43.980;2024-03-23T00:55:45;99028.00;;;-1.59;63.86
69982;BME280;57319;56.274;43.980;2024-03-23T00:58:11;99014.53;;;-1.61;63.87
69982;BME280;57319;56.274;43.980;2024-03-23T01:00:36;99013.63;;;-1.63;64.00
69982;BME280;57319;56.274;43.980;2024-03-23T01:03:02;99014.28;;;-1.70;63.67
69982;BME280;57319;56.274;43.980;2024-03-23T01:05:28;99014.81;;;-1.82;64.43
69982;BME280;57319;56.274;43.980;2024-03-23T01:07:53;99025.25;;;-1.68;64.25
69982;BME280;57319;56.274;43.980;2024-03-23T01:10:19;99025.09;;;-1.76;64.52
69982;BME280;57319;56.274;43.980;2024-03-23T01:12:45;99022.59;;;-1.74;63.97
69982;BME280;57319;56.274;43.980;2024-03-23T01:15:11;99002.09;;;-1.86;65.20
69982;BME280;57319;56.274;43.980;2024-03-23T01:17:37;98994.81;;;-1.76;64.84
69982;BME280;57319;56.274;43.980;2024-03-23T01:20:03;98998.13;;;-1.77;64.23
69982;BME280;57319;56.274;43.980;2024-03-23T01:22:30;98993.03;;;-1.80;64.73
69982;BME280;57319;56.274;43.980;2024-03-23T01:24:56;98989.47;;;-1.88;64.91
69982;BME280;57319;56.274;43.980;2024-03-23T01:27:22;98995.28;;;-1.91;64.84
69982;BME280;57319;56.274;43.980;2024-03-23T01:29:47;98972.69;;;-1.86;65.00
69982;BME280;57319;56.274;43.980;2024-03-23T01:32:13;98971.88;;;-1.85;64.71
69982;BME280;57319;56.274;43.980;2024-03-23T01:34:39;98963.56;;;-1.81;64.24
69982;BME280;57319;56.274;43.980;2024-03-23T01:37:05;98957.56;;;-1.84;64.28
69982;BME280;57319;56.274;43.980;2024-03-23T01:39:31;98959.34;;;-1.80;64.10
69982;BME280;57319;56.274;43.980;2024-03-23T01:41:56;98960.09;;;-1.84;64.61
69982;BME280;57319;56.274;43.980;2024-03-23T01:44:22;98954.28;;;-1.82;64.97
69982;BME280;57319;56.274;43.980;2024-03-23T01:46:48;98957.16;;;-2.01;66.38
69982;BME280;57319;56.274;43.980;2024-03-23T01:49:14;98957.44;;;-1.91;65.81
69982;BME280;57319;56.274;43.980;2024-03-23T01:51:41;98948.25;;;-1.87;65.58
69982;BME280;57319;56.274;43.980;2024-03-23T01:54:07;98943.19;;;-1.89;66.42
69982;BME280;57319;56.274;43.980;2024-03-23T01:56:33;98947.22;;;-1.95;66.06
69982;BME280;57319;56.274;43.980;2024-03-23T01:59:03;98950.19;;;-2.12;67.03
69982;BME280;57319;56.274;43.980;2024-03-23T02:01:29;98944.59;;;-2.00;66.86
69982;BME280;57319;56.274;43.980;2024-03-23T02:03:55;98949.81;;;-1.94;66.65
69982;BME280;57319;56.274;43.980;2024-03-23T02:06:21;98941.66;;;-2.17;67.31
69982;BME280;57319;56.274;43.980;2024-03-23T02:08:47;98935.00;;;-2.13;67.25
69982;BME280;57319;56.274;43.980;2024-03-23T02:11:14;98930.91;;;-2.10;67.09
69982;BME280;57319;56.274;43.980;2024-03-23T02:13:40;98931.97;;;-2.00;66.63
69982;BME280;57319;56.274;43.980;2024-03-23T02:16:06;98927.63;;;-2.07;66.65
69982;BME280;57319;56.274;43.980;2024-03-23T02:18:35;98931.19;;;-1.99;66.41
69982;BME280;57319;56.274;43.980;2024-03-23T02:21:01;98921.91;;;-2.00;67.07
69982;BME280;57319;56.274;43.980;2024-03-23T02:23:26;98916.00;;;-2.00;66.96
69982;BME280;57319;56.274;43.980;2024-03-23T02:25:52;98920.00;;;-2.09;67.32
69982;BME280;57319;56.274;43.980;2024-03-23T02:28:21;98912.41;;;-2.10;67.36
69982;BME280;57319;56.274;43.980;2024-03-23T02:30:49;98917.53;;;-2.07;67.53
69982;BME280;57319;56.274;43.980;2024-03-23T02:33:14;98918.63;;;-1.96;67.25
69982;BME280;57319;56.274;43.980;2024-03-23T02:35:40;98910.13;;;-1.99;67.29
69982;BME280;57319;56.274;43.980;2024-03-23T02:38:06;98909.44;;;-1.94;67.94
69982;BME280;57319;56.274;43.980;2024-03-23T02:40:32;98910.06;;;-2.02;68.02
69982;BME280;57319;56.274;43.980;2024-03-23T02:42:57;98899.28;;;-1.95;68.33
69982;BME280;57319;56.274;43.980;2024-03-23T02:45:23;98898.31;;;-2.02;68.44
69982;BME280;57319;56.274;43.980;2024-03-23T02:47:49;98894.34;;;-1.92;68.70
69982;BME280;57319;56.274;43.980;2024-03-23T02:50:19;98885.31;;;-1.82;68.02
69982;BME280;57319;56.274;43.980;2024-03-23T02:52:44;98883.66;;;-1.80;67.77
69982;BME280;57319;56.274;43.980;2024-03-23T02:55:10;98880.41;;;-1.76;68.28
69982;BME280;57319;56.274;43.980;2024-03-23T02:57:36;98877.09;;;-1.74;68.22
69982;BME280;57319;56.274;43.980;2024-03-23T03:00:02;98868.72;;;-1.73;68.91
69982;BME280;57319;56.274;43.980;2024-03-23T03:02:30;98872.03;;;-1.75;69.37
69982;BME280;57319;56.274;43.980;2024-03-23T03:04:56;98867.81;;;-1.75;70.01
69982;BME280;57319;56.274;43.980;2024-03-23T03:07:22;98874.75;;;-1.66;70.19
69982;BME280;57319;56.274;43.980;2024-03-23T03:09:48;98865.69;;;-1.58;69.86
69982;BME280;57319;56.274;43.980;2024-03-23T03:12:13;98867.25;;;-1.63;70.20
69982;BME280;57319;56.274;43.980;2024-03-23T03:14:39;98872.44;;;-1.57;70.00
69982;BME280;57319;56.274;43.980;2024-03-23T03:17:05;98863.25;;;-1.53;70.31
69982;BME280;57319;56.274;43.980;2024-03-23T03:19:31;98864.22;;;-1.46;70.38
69982;BME280;57319;56.274;43.980;2024-03-23T03:21:58;98860.94;;;-1.44;70.58
69982;BME280;57319;56.274;43.980;2024-03-23T03:24:23;98850.03;;;-1.41;71.02
69982;BME280;57319;56.274;43.980;2024-03-23T03:26:49;98844.28;;;-1.34;70.84
69982;BME280;57319;56.274;43.980;2024-03-23T03:29:16;98847.63;;;-1.35;71.87
69982;BME280;57319;56.274;43.980;2024-03-23T03:31:44;98847.88;;;-1.23;71.53
69982;BME280;57319;56.274;43.980;2024-03-23T03:34:10;98853.69;;;-1.27;72.07
69982;BME280;57319;56.274;43.980;2024-03-23T03:36:36;98852.16;;;-1.18;72.14
69982;BME280;57319;56.274;43.980;2024-03-23T03:39:01;98841.47;;;-1.07;71.92
69982;BME280;57319;56.274;43.980;2024-03-23T03:41:31;98838.97;;;-1.05;71.93
69982;BME280;57319;56.274;43.980;2024-03-23T03:43:57;98845.75;;;-1.04;72.22
69982;BME280;57319;56.274;43.980;2024-03-23T03:46:26;98841.75;;;-0.91;71.75
69982;BME280;57319;56.274;43.980;2024-03-23T03:48:54;98835.06;;;-0.89;71.56
69982;BME280;57319;56.274;43.980;2024-03-23T03:51:20;98832.13;;;-1.11;72.35
69982;BME280;57319;56.274;43.980;2024-03-23T03:53:46;98831.69;;;-0.88;71.68
69982;BME280;57319;56.274;43.980;2024-03-23T03:56:12;98832.63;;;-0.83;71.96
69982;BME280;57319;56.274;43.980;2024-03-23T03:58:37;98832.66;;;-0.81;71.75
69982;BME280;57319;56.274;43.980;2024-03-23T04:01:03;98834.81;;;-1.03;72.51
69982;BME280;57319;56.274;43.980;2024-03-23T04:03:29;98817.44;;;-0.86;72.19
69982;BME280;57319;56.274;43.980;2024-03-23T04:05:54;98826.06;;;-0.73;71.59
69982;BME280;57319;56.274;43.980;2024-03-23T04:08:21;98821.97;;;-0.68;71.33
69982;BME280;57319;56.274;43.980;2024-03-23T04:10:47;98820.34;;;-0.64;71.27
69982;BME280;57319;56.274;43.980;2024-03-23T04:13:13;98821.34;;;-0.56;71.55
69982;BME280;57319;56.274;43.980;2024-03-23T04:15:39;98816.47;;;-0.45;71.17
69982;BME280;57319;56.274;43.980;2024-03-23T04:18:06;98819.00;;;-0.44;70.79
69982;BME280;57319;56.274;43.980;2024-03-23T04:20:32;98815.72;;;-0.38;71.07
69982;BME280;57319;56.274;43.980;2024-03-23T04:22:58;98825.63;;;-0.50;71.43
69982;BME280;57319;56.274;43.980;2024-03-23T04:25:24;98805.69;;;-0.32;71.20
69982;BME280;57319;56.274;43.980;2024-03-23T04:27:50;98806.50;;;-0.35;71.03
69982;BME280;57319;56.274;43.980;2024-03-23T04:30:15;98811.72;;;-0.24;71.16
69982;BME280;57319;56.274;43.980;2024-03-23T04:32:41;98803.28;;;-0.26;70.63
69982;BME280;57319;56.274;43.980;2024-03-23T04:35:08;98802.34;;;-0.31;71.04
69982;BME280;57319;56.274;43.980;2024-03-23T04:37:38;98797.94;;;-0.43;71.83
69982;BME280;57319;56.274;43.980;2024-03-23T04:40:09;98799.03;;;-0.27;71.39
69982;BME280;57319;56.274;43.980;2024-03-23T04:42:36;98801.56;;;-0.28;71.60
69982;BME280;57319;56.274;43.980;2024-03-23T04:45:03;98798.81;;;-0.42;72.47
69982;BME280;57319;56.274;43.980;2024-03-23T04:47:31;98799.06;;;-0.25;71.88
69982;BME280;57319;56.274;43.980;2024-03-23T04:49:57;98804.72;;;-0.40;72.65
69982;BME280;57319;56.274;43.980;2024-03-23T04:52:23;98794.03;;;-0.22;71.96
69982;BME280;57319;56.274;43.980;2024-03-23T04:54:49;98795.91;;;-0.10;71.52
69982;BME280;57319;56.274;43.980;2024-03-23T04:57:15;98787.03;;;-0.39;73.72
69982;BME280;57319;56.274;43.980;2024-03-23T04:59:42;98780.72;;;-0.12;72.09
69982;BME280;57319;56.274;43.980;2024-03-23T05:02:08;98775.78;;;-0.04;72.40
69982;BME280;57319;56.274;43.980;2024-03-23T05:04:33;98769.13;;;-0.53;74.36
69982;BME280;57319;56.274;43.980;2024-03-23T05:06:59;98767.53;;;0.11;72.36
69982;BME280;57319;56.274;43.980;2024-03-23T05:09:25;98762.88;;;0.40;71.28
69982;BME280;57319;56.274;43.980;2024-03-23T05:11:56;98771.44;;;0.52;70.72
69982;BME280;57319;56.274;43.980;2024-03-23T05:14:22;98774.00;;;0.56;70.44
69982;BME280;57319;56.274;43.980;2024-03-23T05:16:48;98757.28;;;0.69;70.36
69982;BME280;57319;56.274;43.980;2024-03-23T05:19:13;98760.13;;;0.98;69.02
69982;BME280;57319;56.274;43.980;2024-03-23T05:21:39;98751.47;;;0.78;70.23
69982;BME280;57319;56.274;43.980;2024-03-23T05:24:05;98756.81;;;1.06;69.64
69982;BME280;57319;56.274;43.980;2024-03-23T05:26:31;98752.50;;;0.95;70.52
69982;BME280;57319;56.274;43.980;2024-03-23T05:28:57;98750.19;;;1.18;69.09
69982;BME280;57319;56.274;43.980;2024-03-23T05:31:27;98746.75;;;1.15;69.17
69982;BME280;57319;56.274;43.980;2024-03-23T05:33:53;98747.66;;;1.22;69.21
69982;BME280;57319;56.274;43.980;2024-03-23T05:36:19;98746.88;;;1.27;69.41
69982;BME280;57319;56.274;43.980;2024-03-23T05:38:44;98736.78;;;1.32;68.82
69982;BME280;57319;56.274;43.980;2024-03-23T05:41:10;98747.84;;;1.40;68.45
69982;BME280;57319;56.274;43.980;2024-03-23T05:43:36;98743.59;;;1.42;68.99
69982;BME280;57319;56.274;43.980;2024-03-23T05:46:02;98733.53;;;1.51;68.65
69982;BME280;57319;56.274;43.980;2024-03-23T05:48:29;98736.91;;;1.52;68.89
69982;BME280;57319;56.274;43.980;2024-03-23T05:50:56;98735.31;;;1.63;68.62
69982;BME280;57319;56.274;43.980;2024-03-23T05:53:23;98730.28;;;1.73;69.03
69982;BME280;57319;56.274;43.980;2024-03-23T05:55:50;98725.22;;;1.76;68.53
69982;BME280;57319;56.274;43.980;2024-03-23T05:58:17;98728.66;;;1.84;68.27
69982;BME280;57319;56.274;43.980;2024-03-23T06:00:44;98716.03;;;1.89;67.82
69982;BME280;57319;56.274;43.980;2024-03-23T06:03:10;98723.59;;;1.81;68.76
69982;BME280;57319;56.274;43.980;2024-03-23T06:05:39;98717.88;;;2.25;66.80
69982;BME280;57319;56.274;43.980;2024-03-23T06:08:06;98708.53;;;2.18;66.96
69982;BME280;57319;56.274;43.980;2024-03-23T06:10:35;98706.94;;;2.35;65.38
69982;BME280;57319;56.274;43.980;2024-03-23T06:13:00;98710.19;;;2.03;67.21
69982;BME280;57319;56.274;43.980;2024-03-23T06:15:26;98699.34;;;2.51;66.09
69982;BME280;57319;56.274;43.980;2024-03-23T06:17:52;98700.97;;;2.29;66.39
69982;BME280;57319;56.274;43.980;2024-03-23T06:20:18;98700.25;;;2.64;65.57
69982;BME280;57319;56.274;43.980;2024-03-23T06:22:44;98696.88;;;2.89;64.65
69982;BME280;57319;56.274;43.980;2024-03-23T06:25:09;98692.59;;;2.61;65.04
69982;BME280;57319;56.274;43.980;2024-03-23T06:27:38;98692.59;;;2.59;65.40
69982;BME280;57319;56.274;43.980;2024-03-23T06:30:05;98681.56;;;2.51;65.32
69982;BME280;57319;56.274;43.980;2024-03-23T06:32:31;98679.84;;;2.36;67.04
69982;BME280;57319;56.274;43.980;2024-03-23T06:34:57;98685.03;;;2.95;64.77
69982;BME280;57319;56.274;43.980;2024-03-23T06:37:22;98687.56;;;2.65;65.67
69982;BME280;57319;56.274;43.980;2024-03-23T06:39:48;98682.53;;;3.01;64.81
69982;BME280;57319;56.274;43.980;2024-03-23T06:42:14;98677.44;;;3.04;64.62
69982;BME280;57319;56.274;43.980;2024-03-23T06:44:40;98662.19;;;3.26;63.83
69982;BME280;57319;56.274;43.980;2024-03-23T06:47:06;98666.38;;;3.37;63.13
69982;BME280;57319;56.274;43.980;2024-03-23T06:49:31;98671.50;;;3.44;62.62
69982;BME280;57319;56.274;43.980;2024-03-23T06:51:57;98678.25;;;3.54;63.19
69982;BME280;57319;56.274;43.980;2024-03-23T06:54:24;98667.19;;;3.70;62.49
69982;BME280;57319;56.274;43.980;2024-03-23T06:56:50;98674.81;;;3.77;62.57
69982;BME280;57319;56.274;43.980;2024-03-23T06:59:16;98669.75;;;3.47;63.25
69982;BME280;57319;56.274;43.980;2024-03-23T07:01:41;98667.22;;;3.46;63.94
69982;BME280;57319;56.274;43.980;2024-03-23T07:04:07;98657.84;;;3.74;62.81
69982;BME280;57319;56.274;43.980;2024-03-23T07:06:33;98656.03;;;4.02;62.55
69982;BME280;57319;56.274;43.980;2024-03-23T07:08:59;98655.97;;;4.21;62.01
69982;BME280;57319;56.274;43.980;2024-03-23T07:11:25;98650.84;;;4.27;61.03
69982;BME280;57319;56.274;43.980;2024-03-23T07:13:52;98652.72;;;3.82;62.18
69982;BME280;57319;56.274;43.980;2024-03-23T07:16:18;98646.78;;;3.84;62.71
69982;BME280;57319;56.274;43.980;2024-03-23T07:18:44;98648.44;;;3.99;62.06
69982;BME280;57319;56.274;43.980;2024-03-23T07:21:09;98645.09;;;3.85;62.70
69982;BME280;57319;56.274;43.980;2024-03-23T07:23:35;98635.63;;;4.19;61.89
69982;BME280;57319;56.274;43.980;2024-03-23T07:26:05;98625.66;;;3.59;62.46
69982;BME280;57319;56.274;43.980;2024-03-23T07:28:31;98633.88;;;4.28;61.77
69982;BME280;57319;56.274;43.980;2024-03-23T07:31:08;98628.66;;;4.46;60.23
69982;BME280;57319;56.274;43.980;2024-03-23T07:33:35;98629.47;;;4.59;60.21
69982;BME280;57319;56.274;43.980;2024-03-23T07:36:02;98623.44;;;4.66;60.10
69982;BME280;57319;56.274;43.980;2024-03-23T07:38:29;98620.22;;;4.38;61.15
69982;BME280;57319;56.274;43.980;2024-03-23T07:41:05;98628.84;;;4.15;60.97
69982;BME280;57319;56.274;43.980;2024-03-23T07:43:31;98616.75;;;4.53;60.24
69982;BME280;57319;56.274;43.980;2024-03-23T07:45:57;98609.72;;;4.86;58.77
69982;BME280;57319;56.274;43.980;2024-03-23T07:48:23;98604.56;;;4.93;58.96
69982;BME280;57319;56.274;43.980;2024-03-23T07:51:02;98597.91;;;4.75;58.89
69982;BME280;57319;56.274;43.980;2024-03-23T07:53:31;98588.44;;;4.90;58.50
69982;BME280;57319;56.274;43.980;2024-03-23T07:55:58;98591.75;;;4.98;57.99
69982;BME280;57319;56.274;43.980;2024-03-23T07:58:25;98589.97;;;5.11;57.71
69982;BME280;57319;56.274;43.980;2024-03-23T08:00:53;98593.28;;;5.19;57.72
69982;BME280;57319;56.274;43.980;2024-03-23T08:03:19;98589.03;;;5.20;57.65
69982;BME280;57319;56.274;43.980;2024-03-23T08:05:45;98589.72;;;5.34;57.35
69982;BME280;57319;56.274;43.980;2024-03-23T08:08:11;98587.81;;;5.56;56.29
69982;BME280;57319;56.274;43.980;2024-03-23T08:10:46;98592.13;;;5.47;57.29
69982;BME280;57319;56.274;43.980;2024-03-23T08:13:12;98589.41;;;5.64;56.76
69982;BME280;57319;56.274;43.980;2024-03-23T08:15:37;98576.78;;;5.53;57.19
69982;BME280;57319;56.274;43.980;2024-03-23T08:18:03;98570.59;;;5.72;56.93
69982;BME280;57319;56.274;43.980;2024-03-23T08:20:30;98565.41;;;5.80;56.34
69982;BME280;57319;56.274;43.980;2024-03-23T08:22:55;98556.88;;;5.81;56.35
69982;BME280;57319;56.274;43.980;2024-03-23T08:25:21;98560.25;;;5.83;56.51
69982;BME280;57319;56.274;43.980;2024-03-23T08:27:47;98539.63;;;5.97;55.61
69982;BME280;57319;56.274;43.980;2024-03-23T08:30:13;98541.34;;;6.00;55.80
69982;BME280;57319;56.274;43.980;2024-03-23T08:32:39;98524.03;;;6.19;55.30
69982;BME280;57319;56.274;43.980;2024-03-23T08:35:05;98526.06;;;5.95;55.81
69982;BME280;57319;56.274;43.980;2024-03-23T08:37:31;98518.06;;;6.20;54.89
69982;BME280;57319;56.274;43.980;2024-03-23T08:39:56;98518.75;;;6.31;54.93
69982;BME280;57319;56.274;43.980;2024-03-23T08:42:22;98516.22;;;6.30;55.60
69982;BME280;57319;56.274;43.980;2024-03-23T08:44:47;98512.56;;;5.85;55.05
69982;BME280;57319;56.274;43.980;2024-03-23T08:47:16;98498.53;;;6.16;54.91
69982;BME280;57319;56.274;43.980;2024-03-23T08:49:42;98499.47;;;6.11;56.46
69982;BME280;57319;56.274;43.980;2024-03-23T08:52:09;98512.72;;;5.71;57.04
69982;BME280;57319;56.274;43.980;2024-03-23T08:54:35;98502.78;;;6.15;55.24
69982;BME280;57319;56.274;43.980;2024-03-23T08:57:00;98497.69;;;6.15;56.12
69982;BME280;57319;56.274;43.980;2024-03-23T08:59:26;98493.50;;;6.09;56.37
69982;BME280;57319;56.274;43.980;2024-03-23T09:01:52;98494.72;;;6.43;55.44
69982;BME280;57319;56.274;43.980;2024-03-23T09:04:18;98479.38;;;6.43;55.23
69982;BME280;57319;56.274;43.980;2024-03-23T09:06:44;98485.91;;;6.61;54.19
69982;BME280;57319;56.274;43.980;2024-03-23T09:09:10;98477.00;;;6.82;54.31
69982;BME280;57319;56.274;43.980;2024-03-23T09:11:36;98466.38;;;7.04;53.29
69982;BME280;57319;56.274;43.980;2024-03-23T09:14:03;98459.94;;;7.29;52.93
69982;BME280;57319;56.274;43.980;2024-03-23T09:16:30;98460.22;;;7.12;52.81
69982;BME280;57319;56.274;43.980;2024-03-23T09:18:56;98461.03;;;6.69;52.64
69982;BME280;57319;56.274;43.980;2024-03-23T09:21:21;98444.94;;;7.09;53.90
69982;BME280;57319;56.274;43.980;2024-03-23T09:23:47;98448.94;;;6.79;53.05
69982;BME280;57319;56.274;43.980;2024-03-23T09:26:13;98442.84;;;7.30;52.38
69982;BME280;57319;56.274;43.980;2024-03-23T09:28:40;98433.75;;;7.15;51.97
69982;BME280;57319;56.274;43.980;2024-03-23T09:31:07;98434.22;;;6.90;52.55
69982;BME280;57319;56.274;43.980;2024-03-23T09:33:34;98429.09;;;7.34;51.92
69982;BME280;57319;56.274;43.980;2024-03-23T09:36:06;98422.28;;;6.89;51.40
69982;BME280;57319;56.274;43.980;2024-03-23T09:38:33;98420.06;;;7.18;51.22
69982;BME280;57319;56.274;43.980;2024-03-23T09:40:59;98428.19;;;7.76;50.42
69982;BME280;57319;56.274;43.980;2024-03-23T09:43:25;98431.50;;;7.00;51.51
69982;BME280;57319;56.274;43.980;2024-03-23T09:45:52;98414.09;;;7.16;51.39
69982;BME280;57319;56.274;43.980;2024-03-23T09:48:18;98411.78;;;7.45;51.22
69982;BME280;57319;56.274;43.980;2024-03-23T09:50:45;98416.25;;;7.36;51.03
69982;BME280;57319;56.274;43.980;2024-03-23T09:53:13;98399.38;;;7.28;51.19
69982;BME280;57319;56.274;43.980;2024-03-23T09:55:44;98399.00;;;7.03;52.24
69982;BME280;57319;56.274;43.980;2024-03-23T09:58:15;98400.31;;;6.34;53.06
69982;BME280;57319;56.274;43.980;2024-03-23T10:00:40;98394.66;;;6.63;53.30
69982;BME280;57319;56.274;43.980;2024-03-23T10:03:06;98385.19;;;6.68;53.56
69982;BME280;57319;56.274;43.980;2024-03-23T10:05:33;98379.47;;;6.55;54.50
69982;BME280;57319;56.274;43.980;2024-03-23T10:10:40;98381.56;;;6.35;54.93
69982;BME280;57319;56.274;43.980;2024-03-23T10:13:06;98368.66;;;6.41;55.24
69982;BME280;57319;56.274;43.980;2024-03-23T10:15:34;98366.91;;;6.43;55.54
69982;BME280;57319;56.274;43.980;2024-03-23T10:18:18;98361.69;;;6.49;54.52
69982;BME280;57319;56.274;43.980;2024-03-23T10:20:51;98357.56;;;6.42;55.38
69982;BME280;57319;56.274;43.980;2024-03-23T10:23:17;98361.09;;;6.33;55.44
69982;BME280;57319;56.274;43.980;2024-03-23T10:25:43;98348.38;;;6.32;55.86
69982;BME280;57319;56.274;43.980;2024-03-23T10:28:09;98348.50;;;6.24;56.89
69982;BME280;57319;56.274;43.980;2024-03-23T10:30:37;98342.44;;;5.76;58.43
69982;BME280;57319;56.274;43.980;2024-03-23T10:33:12;98335.31;;;5.97;57.69
69982;BME280;57319;56.274;43.980;2024-03-23T10:35:39;98341.38;;;5.90;58.46
69982;BME280;57319;56.274;43.980;2024-03-23T10:38:05;98334.59;;;5.89;58.67
69982;BME280;57319;56.274;43.980;2024-03-23T10:40:35;98332.16;;;5.83;58.34
69982;BME280;57319;56.274;43.980;2024-03-23T10:43:03;98320.53;;;5.65;59.51
69982;BME280;57319;56.274;43.980;2024-03-23T10:45:30;98318.34;;;5.93;58.87
69982;BME280;57319;56.274;43.980;2024-03-23T10:47:56;98312.28;;;6.00;59.14
69982;BME280;57319;56.274;43.980;2024-03-23T10:50:23;98307.91;;;6.07;59.01
69982;BME280;57319;56.274;43.980;2024-03-23T10:52:49;98312.28;;;6.00;59.45
69982;BME280;57319;56.274;43.980;2024-03-23T10:55:19;98308.66;;;6.14;59.35
69982;BME280;57319;56.274;43.980;2024-03-23T10:57:51;98301.63;;;6.26;58.84
69982;BME280;57319;56.274;43.980;2024-03-23T11:00:18;98294.16;;;6.16;59.62
69982;BME280;57319;56.274;43.980;2024-03-23T11:02:48;98292.66;;;6.04;58.69
69982;BME280;57319;56.274;43.980;2024-03-23T11:07:52;98297.53;;;5.63;60.50
69982;BME280;57319;56.274;43.980;2024-03-23T11:10:30;98290.53;;;5.77;60.61
69982;BME280;57319;56.274;43.980;2024-03-23T11:12:57;98295.53;;;5.82;60.11
69982;BME280;57319;56.274;43.980;2024-03-23T11:15:23;98278.41;;;5.89;59.95
69982;BME280;57319;56.274;43.980;2024-03-23T11:18:05;98288.72;;;5.84;60.80
69982;BME280;57319;56.274;43.980;2024-03-23T11:20:34;98283.63;;;5.28;63.05
69982;BME280;57319;56.274;43.980;2024-03-23T11:23:00;98272.16;;;5.55;62.44
69982;BME280;57319;56.274;43.980;2024-03-23T11:25:28;98278.97;;;5.53;63.22
69982;BME280;57319;56.274;43.980;2024-03-23T11:28:09;98278.81;;;5.64;63.20
69982;BME280;57319;56.274;43.980;2024-03-23T11:30:35;98269.56;;;5.58;63.71
69982;BME280;57319;56.274;43.980;2024-03-23T11:33:04;98275.41;;;5.09;65.18
69982;BME280;57319;56.274;43.980;2024-03-23T11:35:31;98276.91;;;5.22;66.05
69982;BME280;57319;56.274;43.980;2024-03-23T11:38:13;98262.97;;;5.43;66.12
69982;BME280;57319;56.274;43.980;2024-03-23T11:40:40;98247.09;;;5.28;67.45
69982;BME280;57319;56.274;43.980;2024-03-23T11:43:09;98259.88;;;5.24;68.89
69982;BME280;57319;56.274;43.980;2024-03-23T11:45:39;98265.03;;;5.20;69.21
69982;BME280;57319;56.274;43.980;2024-03-23T11:50:46;98269.09;;;4.71;72.24
69982;BME280;57319;56.274;43.980;2024-03-23T11:53:22;98259.53;;;4.88;71.87
69982;BME280;57319;56.274;43.980;2024-03-23T11:58:17;98255.03;;;4.40;76.33
69982;BME280;57319;56.274;43.980;2024-03-23T12:00:57;98256.25;;;4.07;78.33
69982;BME280;57319;56.274;43.980;2024-03-23T12:03:24;98251.28;;;3.95;80.22
69982;BME280;57319;56.274;43.980;2024-03-23T12:05:58;98240.16;;;4.05;80.55
69982;BME280;57319;56.274;43.980;2024-03-23T12:08:31;98227.47;;;4.00;81.49
69982;BME280;57319;56.274;43.980;2024-03-23T12:11:16;98237.84;;;3.80;83.07
69982;BME280;57319;56.274;43.980;2024-03-23T12:13:45;98244.69;;;3.77;83.83
69982;BME280;57319;56.274;43.980;2024-03-23T12:16:17;98237.28;;;3.52;86.03
69982;BME280;57319;56.274;43.980;2024-03-23T12:18:44;98238.00;;;3.65;86.67
69982;BME280;57319;56.274;43.980;2024-03-23T12:21:10;98242.34;;;3.52;87.47
69982;BME280;57319;56.274;43.980;2024-03-23T12:23:39;98244.84;;;3.56;88.05
69982;BME280;57319;56.274;43.980;2024-03-23T12:26:05;98240.72;;;3.46;89.09
69982;BME280;57319;56.274;43.980;2024-03-23T12:28:32;98239.09;;;3.34;89.50
69982;BME280;57319;56.274;43.980;2024-03-23T12:30:57;98234.22;;;3.08;90.16
69982;BME280;57319;56.274;43.980;2024-03-23T12:33:23;98235.66;;;3.40;90.22
69982;BME280;57319;56.274;43.980;2024-03-23T12:35:52;98223.16;;;3.12;91.52
69982;BME280;57319;56.274;43.980;2024-03-23T12:38:19;98219.78;;;3.09;91.99
69982;BME280;57319;56.274;43.980;2024-03-23T12:40:48;98222.31;;;3.15;92.95
69982;BME280;57319;56.274;43.980;2024-03-23T12:43:15;98215.63;;;2.95;94.44
69982;BME280;57319;56.274;43.980;2024-03-23T12:45:45;98218.25;;;2.87;94.84
69982;BME280;57319;56.274;43.980;2024-03-23T12:48:11;98220.00;;;2.76;96.50
69982;BME280;57319;56.274;43.980;2024-03-23T12:50:37;98207.25;;;2.82;97.04
69982;BME280;57319;56.274;43.980;2024-03-23T12:53:03;98212.50;;;2.54;100.00
69982;BME280;57319;56.274;43.980;2024-03-23T12:55:29;98206.53;;;2.62;99.98
69982;BME280;57319;56.274;43.980;2024-03-23T12:57:54;98212.50;;;2.54;100.00
69982;BME280;57319;56.274;43.980;2024-03-23T13:00:20;98202.31;;;2.59;100.00
69982;BME280;57319;56.274;43.980;2024-03-23T13:02:46;98204.97;;;2.39;100.00
69982;BME280;57319;56.274;43.980;2024-03-23T13:05:11;98205.09;;;2.03;100.00
69982;BME280;57319;56.274;43.980;2024-03-23T13:07:37;98196.56;;;2.22;100.00
69982;BME280;57319;56.274;43.980;2024-03-23T13:10:05;98194.00;;;2.26;100.00
69982;BME280;57319;56.274;43.980;2024-03-23T13:12:31;98192.31;;;2.22;100.00
69982;BME280;57319;56.274;43.980;2024-03-23T13:14:58;98188.03;;;2.32;100.00
69982;BME280;57319;56.274;43.980;2024-03-23T13:17:24;98177.91;;;2.29;100.00
69982;BME280;57319;56.274;43.980;2024-03-23T13:19:52;98179.59;;;2.33;100.00
69982;BME280;57319;56.274;43.980;2024-03-23T13:22:18;98174.59;;;2.16;100.00
69982;BME280;57319;56.274;43.980;2024-03-23T13:24:44;98179.63;;;2.24;100.00
69982;BME280;57319;56.274;43.980;2024-03-23T13:27:10;98178.81;;;2.14;100.00
69982;BME280;57319;56.274;43.980;2024-03-23T13:29:40;98175.41;;;2.23;100.00
69982;BME280;57319;56.274;43.980;2024-03-23T13:32:07;98179.69;;;2.08;100.00
69982;BME280;57319;56.274;43.980;2024-03-23T13:34:33;98181.38;;;2.12;100.00
69982;BME280;57319;56.274;43.980;2024-03-23T13:37:00;98185.59;;;2.15;100.00
69982;BME280;57319;56.274;43.980;2024-03-23T13:39:26;98180.59;;;1.98;100.00
69982;BME280;57319;56.274;43.980;2024-03-23T13:41:55;98178.06;;;1.92;100.00
69982;BME280;57319;56.274;43.980;2024-03-23T13:44:23;98182.34;;;1.77;100.00
69982;BME280;57319;56.274;43.980;2024-03-23T13:46:49;98173.88;;;1.67;100.00
69982;BME280;57319;56.274;43.980;2024-03-23T13:49:29;98173.00;;;1.79;100.00
69982;BME280;57319;56.274;43.980;2024-03-23T13:51:57;98176.38;;;1.78;100.00
69982;BME280;57319;56.274;43.980;2024-03-23T13:54:25;98168.78;;;1.80;100.00
69982;BME280;57319;56.274;43.980;2024-03-23T13:56:51;98177.31;;;1.45;100.00
69982;BME280;57319;56.274;43.980;2024-03-23T13:59:17;98184.91;;;1.65;100.00